createdAt,value
2018-06-11T00:01:44.771Z,101500.23
2018-06-11T00:04:13.866Z,101499.17
2018-06-11T00:06:42.620Z,101499.87
2018-06-11T00:09:11.365Z,101506.79
2018-06-11T00:11:40.652Z,101503.23
2018-06-11T00:14:09.370Z,101505.35
2018-06-11T00:16:37.971Z,101502.95
2018-06-11T00:19:07.226Z,101498.47
2018-06-11T00:21:35.975Z,101498.95
2018-06-11T00:24:04.729Z,101506.31
2018-06-11T00:26:33.891Z,101503.84
2018-06-11T00:29:02.618Z,101499.36
2018-06-11T00:31:31.358Z,101501.09
2018-06-11T00:34:00.672Z,101498.04
2018-06-11T00:36:29.415Z,101497.50
2018-06-11T00:38:58.209Z,101489.05
2018-06-11T00:41:27.347Z,101494.70
2018-06-11T00:43:56.897Z,101492.06
2018-06-11T00:46:25.474Z,101492.34
2018-06-11T00:48:54.634Z,101488.55
2018-06-11T00:51:23.267Z,101488.82
2018-06-11T00:53:51.846Z,101488.14
2018-06-11T00:56:20.902Z,101478.09
2018-06-11T00:58:49.635Z,101477.28
2018-06-11T01:01:18.365Z,101472.84
2018-06-11T01:03:47.479Z,101478.70
2018-06-11T01:06:16.224Z,101474.83
2018-06-11T01:08:44.963Z,101468.91
2018-06-11T01:11:14.035Z,101466.02
2018-06-11T01:13:42.826Z,101457.02
2018-06-11T01:16:11.730Z,101456.50
2018-06-11T01:18:41.240Z,101450.05
2018-06-11T01:21:09.996Z,101453.50
2018-06-11T01:23:38.755Z,101461.12
2018-06-11T01:26:07.951Z,101463.42
2018-06-11T01:28:36.747Z,101471.33
2018-06-11T01:31:05.594Z,101475.94
2018-06-11T01:33:35.107Z,101485.22
2018-06-11T01:36:04.147Z,101483.56
2018-06-11T01:38:32.883Z,101484.61
2018-06-11T01:41:01.881Z,101481.60
2018-06-11T01:43:30.606Z,101483.25
2018-06-11T01:45:59.346Z,101485.75
2018-06-11T01:48:28.648Z,101489.80
2018-06-11T01:50:57.388Z,101489.35
2018-06-11T01:53:26.174Z,101485.22
2018-06-11T01:55:55.132Z,101484.61
2018-06-11T01:58:23.904Z,101490.43
2018-06-11T02:00:52.651Z,101496.16
2018-06-11T02:03:21.606Z,101495.74
2018-06-11T02:05:50.408Z,101486.03
2018-06-11T02:08:19.163Z,101482.39
2018-06-11T02:10:48.279Z,101471.77
2018-06-11T02:13:17.009Z,101472.97
2018-06-11T02:15:45.694Z,101478.45
2018-06-11T02:18:14.850Z,101472.62
2018-06-11T02:20:43.583Z,101477.17
2018-06-11T02:23:12.166Z,101479.26
2018-06-11T02:25:41.449Z,101472.42
2018-06-11T02:28:10.699Z,101475.66
2018-06-11T02:30:39.619Z,101465.61
2018-06-11T02:33:08.971Z,101465.33
2018-06-11T02:35:37.551Z,101461.85
2018-06-11T02:38:06.135Z,101467.78
2018-06-11T02:40:35.010Z,101472.61
2018-06-11T02:43:04.424Z,101476.78
2018-06-11T02:45:33.003Z,101474.19
2018-06-11T02:48:02.036Z,101482.48
2018-06-11T02:50:30.783Z,101489.70
2018-06-11T02:52:59.522Z,101488.64
2018-06-11T02:55:28.595Z,101484.61
2018-06-11T02:57:57.359Z,101488.84
2018-06-11T03:00:26.087Z,101482.16
2018-06-11T03:02:55.319Z,101480.91
2018-06-11T03:05:24.073Z,101477.73
2018-06-11T03:07:52.883Z,101485.31
2018-06-11T03:10:21.997Z,101477.13
2018-06-11T03:12:51.052Z,101479.16
2018-06-11T03:15:19.782Z,101487.72
2018-06-11T03:17:49.081Z,101476.41
2018-06-11T03:20:17.735Z,101485.23
2018-06-11T03:22:46.519Z,101480.19
2018-06-11T03:25:15.956Z,101481.48
2018-06-11T03:27:44.706Z,101481.77
2018-06-11T03:30:13.489Z,101474.19
2018-06-11T03:32:42.635Z,101474.11
2018-06-11T03:35:11.435Z,101466.20
2018-06-11T03:37:40.189Z,101467.47
2018-06-11T03:40:09.311Z,101473.47
2018-06-11T03:42:38.071Z,101470.22
2018-06-11T03:45:06.924Z,101469.80
2018-06-11T03:47:36.044Z,101474.84
2018-06-11T03:50:04.884Z,101462.95
2018-06-11T03:52:33.636Z,101471.94
2018-06-11T03:55:03.084Z,101472.97
2018-06-11T03:57:31.897Z,101471.66
2018-06-11T04:00:00.678Z,101467.58
2018-06-11T04:02:29.591Z,101473.42
2018-06-11T04:04:58.498Z,101465.21
2018-06-11T04:07:27.322Z,101475.48
2018-06-11T04:09:56.142Z,101482.34
2018-06-11T04:12:24.876Z,101487.49
2018-06-11T04:14:53.608Z,101490.02
2018-06-11T04:17:22.698Z,101488.91
2018-06-11T04:19:51.563Z,101491.66
2018-06-11T04:22:20.364Z,101482.72
2018-06-11T04:24:49.449Z,101484.00
2018-06-11T04:27:18.197Z,101481.45
2018-06-11T04:29:46.931Z,101480.27
2018-06-11T04:32:15.984Z,101481.33
2018-06-11T04:34:44.782Z,101478.84
2018-06-11T04:37:13.358Z,101479.37
2018-06-11T04:39:42.421Z,101486.67
2018-06-11T04:42:11.164Z,101488.70
2018-06-11T04:44:39.902Z,101496.41
2018-06-11T04:47:09.008Z,101491.16
2018-06-11T04:49:37.761Z,101494.33
2018-06-11T04:52:06.501Z,101496.57
2018-06-11T04:54:35.808Z,101496.47
2018-06-11T04:57:04.564Z,101498.66
2018-06-11T04:59:33.392Z,101494.55
2018-06-11T05:02:02.341Z,101489.38
2018-06-11T05:04:31.392Z,101486.22
2018-06-11T05:07:00.399Z,101483.08
2018-06-11T05:09:31.067Z,101487.95
2018-06-11T05:11:59.917Z,101492.59
2018-06-11T05:14:28.676Z,101496.26
2018-06-11T05:16:57.748Z,101498.05
2018-06-11T05:19:26.844Z,101498.98
2018-06-11T05:21:56.307Z,101502.72
2018-06-11T05:24:25.503Z,101496.34
2018-06-11T05:26:54.278Z,101507.42
2018-06-11T05:29:23.416Z,101505.75
2018-06-11T05:31:52.528Z,101504.94
2018-06-11T05:34:21.271Z,101499.44
2018-06-11T05:36:50.084Z,101507.80
2018-06-11T05:39:19.007Z,101504.76
2018-06-11T05:41:47.759Z,101498.88
2018-06-11T05:44:16.780Z,101503.41
2018-06-11T05:46:45.881Z,101515.45
2018-06-11T05:49:14.706Z,101512.20
2018-06-11T05:51:43.294Z,101523.08
2018-06-11T05:54:12.242Z,101520.00
2018-06-11T05:56:41.009Z,101522.22
2018-06-11T05:59:09.782Z,101525.67
2018-06-11T06:01:39.229Z,101527.97
2018-06-11T06:04:07.981Z,101522.94
2018-06-11T06:06:36.743Z,101522.84
2018-06-11T06:09:07.750Z,101529.56
2018-06-11T06:11:36.512Z,101538.45
2018-06-11T06:14:05.324Z,101542.13
2018-06-11T06:16:34.684Z,101538.36
2018-06-11T06:19:03.275Z,101531.08
2018-06-11T06:21:32.028Z,101531.31
2018-06-11T06:24:01.204Z,101535.94
2018-06-11T06:26:30.004Z,101526.98
2018-06-11T06:28:58.739Z,101532.78
2018-06-11T06:31:27.885Z,101531.59
2018-06-11T06:33:56.645Z,101530.32
2018-06-11T06:36:25.455Z,101529.92
2018-06-11T06:38:54.662Z,101530.68
2018-06-11T06:41:23.412Z,101535.61
2018-06-11T06:43:52.164Z,101533.79
2018-06-11T06:46:21.331Z,101528.18
2018-06-11T06:48:50.060Z,101533.55
2018-06-11T06:51:18.864Z,101543.25
2018-06-11T06:53:47.908Z,101540.84
2018-06-11T06:56:16.643Z,101533.05
2018-06-11T06:58:45.262Z,101541.92
2018-06-11T07:01:14.484Z,101539.77
2018-06-11T07:03:43.287Z,101547.67
2018-06-11T07:06:12.039Z,101540.08
2018-06-11T07:08:41.096Z,101540.47
2018-06-11T07:11:09.674Z,101545.62
2018-06-11T07:13:38.366Z,101551.02
2018-06-11T07:16:07.510Z,101545.58
2018-06-11T07:18:36.316Z,101550.12
2018-06-11T07:21:05.075Z,101549.22
2018-06-11T07:23:34.204Z,101545.13
2018-06-11T07:26:02.955Z,101546.52
2018-06-11T07:28:31.787Z,101550.61
2018-06-11T07:31:00.860Z,101549.64
2018-06-11T07:33:29.627Z,101546.28
2018-06-11T07:35:58.364Z,101544.30
2018-06-11T07:38:27.560Z,101546.09
2018-06-11T07:40:56.411Z,101549.07
2018-06-11T07:43:25.185Z,101547.30
2018-06-11T07:45:59.120Z,101548.09
2018-06-11T07:48:28.143Z,101554.41
2018-06-11T07:50:56.987Z,101549.06
2018-06-11T07:53:26.048Z,101543.55
2018-06-11T07:55:54.816Z,101545.50
2018-06-11T07:58:23.596Z,101543.53
2018-06-11T08:00:52.706Z,101542.05
2018-06-11T08:03:21.544Z,101538.81
2018-06-11T08:05:50.376Z,101548.57
2018-06-11T08:08:19.594Z,101551.10
2018-06-11T08:10:48.367Z,101545.34
2018-06-11T08:13:17.431Z,101540.86
2018-06-11T08:15:46.799Z,101548.77
2018-06-11T08:18:15.582Z,101539.97
2018-06-11T08:20:44.386Z,101541.60
2018-06-11T08:23:13.550Z,101543.77
2018-06-11T08:25:42.320Z,101540.38
2018-06-11T08:28:11.401Z,101542.74
2018-06-11T08:30:40.470Z,101541.25
2018-06-11T08:33:09.250Z,101535.66
2018-06-11T08:35:38.125Z,101546.64
2018-06-11T08:38:07.308Z,101553.69
2018-06-11T08:40:36.231Z,101545.76
2018-06-11T08:43:05.001Z,101544.43
2018-06-11T08:45:40.110Z,101544.73
2018-06-11T08:48:08.865Z,101539.98
2018-06-11T08:50:37.797Z,101556.52
2018-06-11T08:53:07.012Z,101549.88
2018-06-11T08:55:35.823Z,101546.05
2018-06-11T08:58:04.639Z,101551.87
2018-06-11T09:00:33.904Z,101552.65
2018-06-11T09:03:02.999Z,101563.28
2018-06-11T09:05:31.764Z,101565.61
2018-06-11T09:08:00.881Z,101562.20
2018-06-11T09:10:29.631Z,101563.25
2018-06-11T09:12:58.360Z,101556.88
2018-06-11T09:15:27.352Z,101555.88
2018-06-11T09:17:56.252Z,101552.23
2018-06-11T09:20:24.963Z,101545.47
2018-06-11T09:22:54.122Z,101553.28
2018-06-11T09:25:22.881Z,101557.30
2018-06-11T09:27:51.685Z,101551.02
2018-06-11T09:30:20.803Z,101544.80
2018-06-11T09:32:49.539Z,101548.61
2018-06-11T09:35:18.307Z,101543.25
2018-06-11T09:37:49.224Z,101546.30
2018-06-11T09:40:18.017Z,101552.48
2018-06-11T09:42:46.755Z,101549.56
2018-06-11T09:45:15.903Z,101550.64
2018-06-11T09:47:44.639Z,101558.44
2018-06-11T09:50:13.384Z,101550.23
2018-06-11T09:52:42.574Z,101549.05
2018-06-11T09:55:11.313Z,101554.78
2018-06-11T09:57:40.066Z,101558.50
2018-06-11T10:00:13.655Z,101557.56
2018-06-11T10:02:42.459Z,101557.03
2018-06-11T10:05:11.187Z,101551.13
2018-06-11T10:07:40.534Z,101556.95
2018-06-11T10:10:09.324Z,101557.38
2018-06-11T10:12:38.068Z,101555.11
2018-06-11T10:15:07.314Z,101557.80
2018-06-11T10:17:36.056Z,101552.79
2018-06-11T10:20:04.916Z,101554.80
2018-06-11T10:22:33.983Z,101565.37
2018-06-11T10:25:02.768Z,101568.67
2018-06-11T10:27:31.424Z,101562.96
2018-06-11T10:30:00.490Z,101558.16
2018-06-11T10:32:29.223Z,101553.41
2018-06-11T10:34:58.349Z,101562.20
2018-06-11T10:37:27.424Z,101569.64
2018-06-11T10:39:56.048Z,101567.49
2018-06-11T10:42:25.120Z,101571.89
2018-06-11T10:44:54.523Z,101564.35
2018-06-11T10:47:23.246Z,101568.75
2018-06-11T10:49:52.292Z,101562.81
2018-06-11T10:52:21.864Z,101563.97
2018-06-11T10:54:50.438Z,101559.18
2018-06-11T10:57:19.219Z,101552.26
2018-06-11T10:59:48.795Z,101548.28
2018-06-11T11:02:17.669Z,101550.17
2018-06-11T11:04:46.731Z,101545.00
2018-06-11T11:07:15.685Z,101536.55
2018-06-11T11:09:44.430Z,101542.25
2018-06-11T11:12:13.159Z,101536.28
2018-06-11T11:14:42.196Z,101538.11
2018-06-11T11:17:11.123Z,101530.95
2018-06-11T11:19:39.858Z,101528.87
2018-06-11T11:22:09.034Z,101524.14
2018-06-11T11:24:37.767Z,101506.34
2018-06-11T11:27:06.359Z,101519.84
2018-06-11T11:29:35.872Z,101520.08
2018-06-11T11:32:04.657Z,101519.42
2018-06-11T11:34:33.700Z,101522.39
2018-06-11T11:37:02.748Z,101522.70
2018-06-11T11:39:31.313Z,101520.47
2018-06-11T11:42:00.103Z,101530.38
2018-06-11T11:44:29.135Z,101524.88
2018-06-11T11:46:57.872Z,101514.02
2018-06-11T11:49:26.627Z,101507.95
2018-06-11T11:51:55.735Z,101508.45
2018-06-11T11:54:24.369Z,101510.05
2018-06-11T11:56:52.953Z,101511.66
2018-06-11T11:59:21.816Z,101514.47
2018-06-11T12:01:50.611Z,101514.87
2018-06-11T12:04:19.339Z,101520.66
2018-06-11T12:06:48.574Z,101523.56
2018-06-11T12:09:17.468Z,101522.52
2018-06-11T12:11:46.288Z,101521.97
2018-06-11T12:14:15.359Z,101512.59
2018-06-11T12:16:44.115Z,101528.32
2018-06-11T12:19:12.980Z,101511.53
2018-06-11T12:21:41.929Z,101515.84
2018-06-11T12:24:10.672Z,101503.70
2018-06-11T12:26:39.408Z,101494.73
2018-06-11T12:29:08.502Z,101498.08
2018-06-11T12:31:37.312Z,101501.74
2018-06-11T12:34:06.060Z,101491.00
2018-06-11T12:36:35.279Z,101487.55
2018-06-11T12:39:06.696Z,101473.06
2018-06-11T12:41:36.052Z,101476.38
2018-06-11T12:46:37.937Z,101468.64
2018-06-11T12:49:06.687Z,101461.59
2018-06-11T12:51:35.475Z,101466.68
2018-06-11T12:54:04.643Z,101457.29
2018-06-11T12:56:33.451Z,101463.23
2018-06-11T12:59:02.185Z,101449.95
2018-06-11T13:01:31.319Z,101447.70
2018-06-11T13:03:59.907Z,101440.30
2018-06-11T13:06:28.542Z,101434.45
2018-06-11T13:08:57.739Z,101429.78
2018-06-11T13:11:26.608Z,101432.48
2018-06-11T13:13:55.438Z,101431.25
2018-06-11T13:16:24.519Z,101422.79
2018-06-11T13:18:53.267Z,101419.45
2018-06-11T13:21:22.203Z,101416.97
2018-06-11T13:23:51.300Z,101409.08
2018-06-11T13:26:20.066Z,101407.72
2018-06-11T13:28:48.815Z,101405.11
2018-06-11T13:31:17.844Z,101405.50
2018-06-11T13:33:46.735Z,101402.36
2018-06-11T13:36:15.479Z,101396.20
2018-06-11T13:38:44.538Z,101403.95
2018-06-11T13:41:13.276Z,101405.84
2018-06-11T13:43:42.009Z,101412.33
2018-06-11T13:46:11.128Z,101405.48
2018-06-11T13:48:39.883Z,101400.72
2018-06-11T13:51:08.638Z,101408.84
2018-06-11T13:53:37.795Z,101414.48
2018-06-11T13:56:06.599Z,101411.89
2018-06-11T13:58:35.432Z,101407.92
2018-06-11T14:01:04.450Z,101394.64
2018-06-11T14:03:33.197Z,101385.42
2018-06-11T14:06:01.783Z,101388.09
2018-06-11T14:08:30.865Z,101387.19
2018-06-11T14:10:59.690Z,101380.60
2018-06-11T14:13:28.439Z,101387.84
2018-06-11T14:15:57.528Z,101381.72
2018-06-11T14:18:26.419Z,101379.93
2018-06-11T14:20:55.247Z,101371.72
2018-06-11T14:23:24.432Z,101372.53
2018-06-11T14:25:53.064Z,101380.39
2018-06-11T14:28:21.897Z,101379.55
2018-06-11T14:30:50.980Z,101378.01
2018-06-11T14:33:19.725Z,101375.86
2018-06-11T14:35:48.519Z,101381.02
2018-06-11T14:38:17.496Z,101390.14
2018-06-11T14:40:46.088Z,101374.06
2018-06-11T14:43:14.839Z,101367.27
2018-06-11T14:45:47.606Z,101371.38
2018-06-11T14:48:16.410Z,101368.50
2018-06-11T14:50:45.156Z,101364.28
2018-06-11T14:53:14.286Z,101366.46
2018-06-11T14:55:43.065Z,101368.97
2018-06-11T14:58:11.944Z,101363.62
2018-06-11T15:00:41.055Z,101364.89
2018-06-11T15:03:09.909Z,101351.99
2018-06-11T15:05:38.940Z,101355.30
2018-06-11T15:08:08.059Z,101349.72
2018-06-11T15:10:36.784Z,101352.31
2018-06-11T15:13:05.640Z,101357.16
2018-06-11T15:15:34.926Z,101353.95
2018-06-11T15:18:03.709Z,101356.53
2018-06-11T15:20:32.808Z,101351.13
2018-06-11T15:23:01.908Z,101352.97
2018-06-11T15:25:30.716Z,101352.28
2018-06-11T15:27:59.470Z,101352.91
2018-06-11T15:30:28.575Z,101357.84
2018-06-11T15:32:57.312Z,101363.52
2018-06-11T15:35:25.899Z,101367.43
2018-06-11T15:37:55.076Z,101361.65
2018-06-11T15:40:23.827Z,101366.35
2018-06-11T15:42:52.558Z,101369.91
2018-06-11T15:45:27.971Z,101375.71
2018-06-11T15:47:56.880Z,101370.09
2018-06-11T15:50:25.611Z,101377.32
2018-06-11T15:52:54.659Z,101374.63
2018-06-11T15:55:23.430Z,101362.13
2018-06-11T15:57:52.167Z,101363.67
2018-06-11T16:00:21.255Z,101367.72
2018-06-11T16:02:50.252Z,101362.75
2018-06-11T16:05:19.076Z,101365.16
2018-06-11T16:07:48.207Z,101370.56
2018-06-11T16:10:16.986Z,101360.94
2018-06-11T16:12:45.630Z,101368.34
2018-06-11T16:15:14.683Z,101364.09
2018-06-11T16:17:43.707Z,101355.12
2018-06-11T16:20:12.560Z,101358.14
2018-06-11T16:22:41.626Z,101353.26
2018-06-11T16:25:10.432Z,101358.72
2018-06-11T16:27:39.197Z,101354.00
2018-06-11T16:30:08.341Z,101351.97
2018-06-11T16:32:37.435Z,101345.31
2018-06-11T16:35:06.285Z,101343.45
2018-06-11T16:37:35.734Z,101336.97
2018-06-11T16:40:04.738Z,101333.77
2018-06-11T16:42:33.499Z,101324.41
2018-06-11T16:45:02.630Z,101326.69
2018-06-11T16:47:31.383Z,101327.69
2018-06-11T16:50:00.132Z,101335.00
2018-06-11T16:52:29.188Z,101326.80
2018-06-11T16:54:57.937Z,101327.47
2018-06-11T16:57:26.775Z,101326.56
2018-06-11T16:59:55.863Z,101320.50
2018-06-11T17:02:24.491Z,101328.73
2018-06-11T17:04:53.239Z,101325.10
2018-06-11T17:07:22.340Z,101323.65
2018-06-11T17:09:51.517Z,101333.48
2018-06-11T17:12:20.332Z,101332.19
2018-06-11T17:14:49.523Z,101327.62
2018-06-11T17:17:18.525Z,101334.80
2018-06-11T17:19:47.315Z,101327.56
2018-06-11T17:22:16.506Z,101327.97
2018-06-11T17:24:45.243Z,101334.93
2018-06-11T17:27:14.040Z,101330.02
2018-06-11T17:29:43.179Z,101339.80
2018-06-11T17:32:12.237Z,101336.57
2018-06-11T17:34:41.057Z,101339.16
2018-06-11T17:37:10.163Z,101335.66
2018-06-11T17:39:39.115Z,101335.84
2018-06-11T17:42:07.860Z,101332.80
2018-06-11T17:44:36.927Z,101332.91
2018-06-11T17:47:05.705Z,101341.10
2018-06-11T17:49:34.541Z,101345.44
2018-06-11T17:52:03.768Z,101342.41
2018-06-11T17:54:32.571Z,101337.69
2018-06-11T17:57:01.282Z,101342.13
2018-06-11T17:59:30.340Z,101347.41
2018-06-11T18:01:58.921Z,101351.11
2018-06-11T18:04:27.794Z,101345.98
2018-06-11T18:06:56.833Z,101344.69
2018-06-11T18:09:25.855Z,101354.94
2018-06-11T18:11:54.920Z,101351.41
2018-06-11T18:14:24.052Z,101343.33
2018-06-11T18:16:52.687Z,101346.66
2018-06-11T18:19:21.274Z,101339.77
2018-06-11T18:21:50.428Z,101347.08
2018-06-11T18:24:19.241Z,101336.80
2018-06-11T18:26:48.019Z,101344.89
2018-06-11T18:29:17.412Z,101337.59
2018-06-11T18:31:46.499Z,101330.50
2018-06-11T18:34:15.260Z,101322.98
2018-06-11T18:36:44.387Z,101329.30
2018-06-11T18:39:13.396Z,101332.61
2018-06-11T18:41:42.259Z,101341.36
2018-06-11T18:44:11.387Z,101337.00
2018-06-11T18:46:40.204Z,101337.22
2018-06-11T18:49:08.782Z,101341.28
2018-06-11T18:51:37.843Z,101342.70
2018-06-11T18:54:06.627Z,101336.14
2018-06-11T18:56:35.630Z,101331.87
2018-06-11T18:59:04.947Z,101333.18
2018-06-11T19:01:34.014Z,101337.07
2018-06-11T19:04:03.188Z,101328.78
2018-06-11T19:06:32.512Z,101339.93
2018-06-11T19:09:01.316Z,101336.78
2018-06-11T19:11:30.474Z,101340.49
2018-06-11T19:13:59.615Z,101341.25
2018-06-11T19:16:28.366Z,101338.64
2018-06-11T19:18:57.196Z,101342.83
2018-06-11T19:21:26.404Z,101345.02
2018-06-11T19:23:55.393Z,101345.53
2018-06-11T19:26:24.292Z,101351.09
2018-06-11T19:28:53.362Z,101350.03
2018-06-11T19:31:22.014Z,101354.54
2018-06-11T19:33:50.790Z,101349.09
2018-06-11T19:36:19.703Z,101344.42
2018-06-11T19:38:48.450Z,101352.27
2018-06-11T19:41:17.213Z,101350.84
2018-06-11T19:43:46.143Z,101357.88
2018-06-11T19:46:14.912Z,101352.03
2018-06-11T19:48:43.648Z,101367.75
2018-06-11T19:51:12.686Z,101369.88
2018-06-11T19:53:41.659Z,101390.20
2018-06-11T19:56:10.455Z,101392.77
2018-06-11T19:58:39.568Z,101398.55
2018-06-11T20:01:08.320Z,101407.45
2018-06-11T20:03:37.051Z,101402.78
2018-06-11T20:06:06.150Z,101397.33
2018-06-11T20:08:35.227Z,101399.25
2018-06-11T20:11:03.996Z,101407.06
2018-06-11T20:13:33.132Z,101414.77
2018-06-11T20:16:01.864Z,101423.55
2018-06-11T20:18:30.652Z,101431.95
2018-06-11T20:20:59.799Z,101430.92
2018-06-11T20:23:28.853Z,101435.02
2018-06-11T20:25:57.601Z,101440.32
2018-06-11T20:28:26.723Z,101445.01
2018-06-11T20:30:55.290Z,101439.63
2018-06-11T20:33:24.070Z,101442.81
2018-06-11T20:35:53.282Z,101450.41
2018-06-11T20:38:22.047Z,101453.97
2018-06-11T20:40:50.928Z,101455.88
2018-06-11T20:43:20.035Z,101448.53
2018-06-11T20:45:49.090Z,101446.44
2018-06-11T20:48:18.087Z,101445.36
2018-06-11T20:50:47.218Z,101441.13
2018-06-11T20:53:15.959Z,101429.36
2018-06-11T20:55:44.546Z,101416.14
2018-06-11T20:58:13.692Z,101413.80
2018-06-11T21:00:42.440Z,101415.52
2018-06-11T21:03:11.175Z,101426.48
2018-06-11T21:05:40.368Z,101419.41
2018-06-11T21:08:09.147Z,101409.73
2018-06-11T21:10:38.007Z,101403.82
2018-06-11T21:13:07.147Z,101397.37
2018-06-11T21:15:35.913Z,101395.50
2018-06-11T21:18:04.792Z,101392.82
2018-06-11T21:20:33.922Z,101392.82
2018-06-11T21:23:02.553Z,101388.05
2018-06-11T21:25:31.193Z,101391.91
2018-06-11T21:28:00.189Z,101389.61
2018-06-11T21:30:28.938Z,101388.16
2018-06-11T21:32:57.746Z,101395.89
2018-06-11T21:35:26.839Z,101383.27
2018-06-11T21:37:55.576Z,101388.47
2018-06-11T21:40:24.332Z,101385.77
2018-06-11T21:42:53.444Z,101384.57
2018-06-11T21:45:30.714Z,101379.27
2018-06-11T21:48:01.458Z,101369.22
2018-06-11T21:50:30.444Z,101370.52
2018-06-11T21:52:59.325Z,101369.28
2018-06-11T21:55:28.566Z,101378.30
2018-06-11T21:57:57.429Z,101379.14
2018-06-11T22:00:26.177Z,101383.13
2018-06-11T22:02:55.133Z,101383.41
2018-06-11T22:05:23.961Z,101379.06
2018-06-11T22:07:52.971Z,101375.98
2018-06-11T22:10:22.221Z,101380.98
2018-06-11T22:12:51.390Z,101378.31
2018-06-11T22:15:20.287Z,101380.48
2018-06-11T22:17:49.816Z,101377.77
2018-06-11T22:20:18.661Z,101378.84
2018-06-11T22:22:47.493Z,101381.94
2018-06-11T22:25:16.932Z,101380.02
2018-06-11T22:27:45.584Z,101383.05
2018-06-11T22:30:14.524Z,101382.24
2018-06-11T22:32:43.653Z,101383.70
2018-06-11T22:35:12.488Z,101385.84
2018-06-11T22:37:41.449Z,101384.00
2018-06-11T22:40:10.972Z,101390.69
2018-06-11T22:42:39.807Z,101392.44
2018-06-11T22:45:08.649Z,101389.25
2018-06-11T22:47:37.865Z,101389.77
2018-06-11T22:50:06.800Z,101390.34
2018-06-11T22:52:35.628Z,101391.81
2018-06-11T22:55:04.841Z,101392.64
2018-06-11T22:57:33.677Z,101392.01
2018-06-11T23:00:02.534Z,101397.50
2018-06-11T23:02:31.827Z,101391.42
2018-06-11T23:05:00.672Z,101387.73
2018-06-11T23:07:29.530Z,101390.42
2018-06-11T23:09:58.501Z,101382.37
2018-06-11T23:12:27.324Z,101379.41
2018-06-11T23:14:56.213Z,101382.04
2018-06-11T23:17:25.377Z,101379.25
2018-06-11T23:19:54.223Z,101379.20
2018-06-11T23:22:23.061Z,101373.28
2018-06-11T23:24:52.258Z,101381.86
2018-06-11T23:27:21.160Z,101372.44
2018-06-11T23:29:49.996Z,101370.17
2018-06-11T23:32:19.341Z,101372.16
2018-06-11T23:34:48.032Z,101382.80
2018-06-11T23:37:16.872Z,101367.98
2018-06-11T23:39:46.177Z,101364.47
2018-06-11T23:42:15.005Z,101356.28
2018-06-11T23:44:43.833Z,101355.10
2018-06-11T23:47:12.800Z,101354.34
2018-06-11T23:49:41.891Z,101351.55
2018-06-11T23:52:10.786Z,101350.27
2018-06-11T23:54:40.040Z,101349.19
2018-06-11T23:57:08.879Z,101346.61
2018-06-11T23:59:37.727Z,101341.22
